Time;durP1;ratioP1;P1;durP2;ratioP2;P2;SDS_P1;SDS_P2;PMS_P1;PMS_P2;Temp;Humidity;BMP_temperature;BMP_pressure;BME280_temperature;BME280_humidity;BME280_pressure;Samples;Min_cycle;Max_cycle;Signal;HPM_P1;HPM_P2
2022/12/16 00:01:05;;;;;;;38.65;23.77;;;;;;;-0.45;88.01;98007.34;5112383;28;20103;-72
2022/12/16 00:03:33;;;;;;;39.15;22.40;;;;;;;-1.05;87.70;97938.97;5112446;28;20048;-72
2022/12/16 00:06:03;;;;;;;46.55;26.20;;;;;;;-0.92;87.99;97926.47;5112154;28;20028;-72
2022/12/16 00:08:32;;;;;;;41.47;24.17;;;;;;;-5.34;88.01;97464.16;5113063;28;20032;-71
2022/12/16 00:10:59;;;;;;;41.65;25.70;;;;;;;-10.87;86.89;96257.75;5112489;28;20044;-72
2022/12/16 00:13:27;;;;;;;42.15;24.27;;;;;;;-2.38;88.08;97666.03;5112498;28;20044;-72
2022/12/16 00:15:54;;;;;;;41.83;23.92;;;;;;;-0.40;88.31;98006.28;5112062;28;20036;-72
2022/12/16 00:18:26;;;;;;;39.58;26.08;;;;;;;-0.39;88.15;98001.94;5113266;28;20062;-72
2022/12/16 00:20:55;;;;;;;40.50;24.15;;;;;;;-9.03;87.57;96557.78;5112992;28;20056;-72
2022/12/16 00:23:23;;;;;;;41.22;24.70;;;;;;;-0.39;88.79;97989.75;5112472;28;20044;-71
2022/12/16 00:25:50;;;;;;;41.92;24.98;;;;;;;-7.97;87.81;96723.97;5111934;28;20040;-72
2022/12/16 00:28:21;;;;;;;43.40;24.63;;;;;;;-10.20;87.25;96386.06;5111743;28;20081;-72
2022/12/16 00:30:48;;;;;;;37.47;22.35;;;;;;;-0.34;88.48;97960.97;5112211;28;20111;-71
2022/12/16 00:33:15;;;;;;;36.17;22.63;;;;;;;-2.04;88.39;97722.94;5112905;28;20043;-71
2022/12/16 00:35:44;;;;;;;31.23;20.40;;;;;;;-0.31;88.40;97963.47;5111300;28;20055;-72
2022/12/16 00:38:12;;;;;;;32.50;19.48;;;;;;;-0.29;88.42;97963.44;5094937;28;20149;-72
2022/12/16 00:40:39;;;;;;;32.40;19.92;;;;;;;-3.14;88.04;97495.47;5112068;28;20044;-72
2022/12/16 00:43:06;;;;;;;28.50;19.77;;;;;;;-0.28;88.42;97978.16;5095810;28;20207;-72
2022/12/16 00:45:40;;;;;;;29.48;18.05;;;;;;;-0.28;88.41;97968.59;5111978;28;20044;-72
2022/12/16 00:48:07;;;;;;;28.15;19.45;;;;;;;-0.25;88.01;97980.66;5114019;28;20039;-71
2022/12/16 00:50:35;;;;;;;28.98;17.92;;;;;;;-2.81;87.89;97516.06;5114329;28;20035;-71
2022/12/16 00:53:06;;;;;;;25.98;18.17;;;;;;;-0.23;88.16;97930.22;5113725;28;20103;-71
2022/12/16 00:55:35;;;;;;;26.60;17.33;;;;;;;-7.08;87.40;96779.16;5113905;28;20047;-71
2022/12/16 00:58:02;;;;;;;26.08;16.88;;;;;;;-0.24;88.70;97980.59;5113195;28;20383;-71
2022/12/16 01:00:31;;;;;;;23.60;15.25;;;;;;;-0.24;88.41;97917.25;5114758;28;20032;-71
2022/12/16 01:02:58;;;;;;;23.60;16.00;;;;;;;-6.86;87.56;96805.16;5080533;28;20075;-71
2022/12/16 01:05:26;;;;;;;22.60;15.27;;;;;;;-2.13;88.13;97596.06;5113353;28;20090;-71
2022/12/16 01:07:54;;;;;;;21.45;15.10;;;;;;;-1.29;88.27;97736.13;5114597;28;20066;-71
2022/12/16 01:10:23;;;;;;;20.75;14.30;;;;;;;-0.21;88.18;97927.56;5113394;28;20039;-72
2022/12/16 01:12:51;;;;;;;21.80;14.45;;;;;;;-0.20;88.26;97917.09;5113801;28;20042;-72
2022/12/16 01:15:18;;;;;;;24.65;15.75;;;;;;;-2.07;88.27;97607.09;5112941;28;20123;-72
2022/12/16 01:17:45;;;;;;;19.58;14.70;;;;;;;-2.67;88.13;97483.63;5112803;28;20040;-72
2022/12/16 01:20:13;;;;;;;21.45;14.55;;;;;;;-0.71;88.27;97849.47;5112084;28;20086;-72
2022/12/16 01:22:41;;;;;;;25.00;15.50;;;;;;;-7.07;87.82;96755.13;5113704;28;20043;-72
2022/12/16 01:25:11;;;;;;;22.15;15.60;;;;;;;-0.71;88.42;97842.50;5095514;28;20126;-72
2022/12/16 01:27:40;;;;;;;22.65;15.40;;;;;;;-0.14;88.49;97900.41;5113170;28;20044;-72
2022/12/16 01:30:09;;;;;;;23.90;16.75;;;;;;;-0.70;88.18;97804.34;5112500;28;20044;-72
2022/12/16 01:32:36;;;;;;;23.77;16.33;;;;;;;-0.13;88.38;97904.72;5113293;28;20115;-72
2022/12/16 01:35:03;;;;;;;21.40;15.80;;;;;;;-0.12;88.36;97894.25;5113096;28;20169;-71
2022/12/16 01:37:31;;;;;;;20.48;13.65;;;;;;;-3.32;87.91;97423.50;5111973;28;20249;-72
2022/12/16 01:39:58;;;;;;;19.30;14.65;;;;;;;-7.94;87.10;96566.25;5111699;28;20036;-72
2022/12/16 01:42:27;;;;;;;19.15;13.70;;;;;;;-0.04;88.20;97880.94;5110789;28;20047;-72
2022/12/16 01:44:55;;;;;;;16.42;11.82;;;;;;;-0.02;88.28;97878.28;5111901;28;20351;-72
2022/12/16 01:47:27;;;;;;;13.68;11.50;;;;;;;-0.04;88.42;97873.97;5111513;28;20292;-72
2022/12/16 01:49:59;;;;;;;15.07;10.77;;;;;;;-0.60;88.41;97844.75;5110185;28;20062;-72
2022/12/16 01:52:31;;;;;;;12.93;10.85;;;;;;;-0.04;88.59;97866.16;5110652;28;20039;-71
2022/12/16 01:55:02;;;;;;;11.43;10.23;;;;;;;-3.76;88.14;97308.28;5110234;28;20035;-72
2022/12/16 01:57:33;;;;;;;11.88;9.82;;;;;;;-0.04;88.73;97860.09;5108838;28;20300;-72
2022/12/16 02:00:07;;;;;;;10.65;9.15;;;;;;;-2.30;88.40;97491.06;5110424;28;20067;-72
2022/12/16 02:02:35;;;;;;;10.77;9.10;;;;;;;-2.63;88.50;97650.34;5112436;28;20035;-73
2022/12/16 02:05:23;;;;;;;12.38;9.60;;;;;;;-7.06;88.29;96671.00;5112337;28;20036;-73
2022/12/16 02:08:01;;;;;;;9.80;8.65;;;;;;;-0.10;89.12;97840.34;5112502;28;20066;-72
2022/12/16 02:10:39;;;;;;;10.13;8.70;;;;;;;-1.23;89.05;97642.34;5110408;28;20114;-72
2022/12/16 02:13:20;;;;;;;10.15;8.65;;;;;;;-0.62;89.40;97739.03;5110385;28;20042;-72
2022/12/16 02:15:59;;;;;;;10.40;8.55;;;;;;;-6.02;88.38;96836.31;5110961;28;20035;-72
2022/12/16 02:18:38;;;;;;;8.90;7.97;;;;;;;0.00;88.87;97840.84;5110700;28;20051;-72
2022/12/16 02:21:22;;;;;;;9.38;8.35;;;;;;;0.03;88.68;97842.50;5109898;28;20036;-72
2022/12/16 02:24:19;;;;;;;9.93;7.82;;;;;;;-0.75;88.83;97715.19;5109055;28;20054;-72
2022/12/16 02:27:12;;;;;;;9.20;6.93;;;;;;;-0.00;89.51;97925.97;5109973;28;20220;-72
2022/12/16 02:30:11;;;;;;;8.80;7.88;;;;;;;0.02;89.33;97859.03;5076009;28;20124;-72
2022/12/16 02:32:54;;;;;;;9.35;7.97;;;;;;;-1.27;89.24;97636.41;5078119;28;20040;-72
2022/12/16 02:35:28;;;;;;;8.65;7.63;;;;;;;-1.34;89.25;97624.53;5109713;28;20055;-73
2022/12/16 02:38:04;;;;;;;10.93;9.32;;;;;;;-7.73;88.47;96803.97;5110704;28;20043;-72
2022/12/16 02:40:40;;;;;;;8.75;7.60;;;;;;;-0.57;89.40;97810.81;5109635;28;20036;-72
2022/12/16 02:43:15;;;;;;;9.18;7.75;;;;;;;-6.62;88.65;96888.66;5109129;28;20207;-72
2022/12/16 02:45:42;;;;;;;7.68;6.82;;;;;;;-6.96;88.62;96690.44;5109409;28;20048;-71
2022/12/16 02:48:11;;;;;;;8.88;7.95;;;;;;;-7.55;88.54;96583.16;5093163;28;20048;-72
2022/12/16 02:50:42;;;;;;;8.13;7.22;;;;;;;-7.60;88.66;96581.59;5110056;28;20203;-71
2022/12/16 02:53:10;;;;;;;8.02;7.22;;;;;;;0.03;89.78;97847.72;5108754;28;20044;-72
2022/12/16 02:55:50;;;;;;;8.32;7.20;;;;;;;-3.49;89.16;97570.78;5109132;28;20103;-72
2022/12/16 02:58:25;;;;;;;9.30;7.57;;;;;;;-3.03;89.35;97326.69;5108714;28;20040;-72
2022/12/16 03:01:05;;;;;;;8.25;7.10;;;;;;;0.04;89.56;97811.19;5109046;28;20103;-72
2022/12/16 03:03:39;;;;;;;9.55;8.13;;;;;;;0.05;89.51;97794.66;5109502;28;20107;-72
2022/12/16 03:06:09;;;;;;;8.48;6.70;;;;;;;0.07;89.58;98289.56;5109712;28;20089;-72
2022/12/16 03:08:40;;;;;;;9.95;8.60;;;;;;;-2.80;89.05;97300.84;5110753;28;20055;-72
2022/12/16 03:11:11;;;;;;;7.45;6.43;;;;;;;-7.18;88.23;96557.22;5113282;28;20036;-73
2022/12/16 03:13:45;;;;;;;6.65;5.97;;;;;;;0.11;89.41;97755.34;5112081;28;20044;-73
2022/12/16 03:16:16;;;;;;;6.75;6.15;;;;;;;0.11;89.25;97749.28;5114148;28;20066;-72
2022/12/16 03:19:02;;;;;;;7.15;6.15;;;;;;;-1.72;89.02;97436.25;5113079;28;20062;-73
2022/12/16 03:21:34;;;;;;;8.07;6.13;;;;;;;-7.90;88.13;96421.31;5113380;28;20040;-72
2022/12/16 03:24:03;;;;;;;6.43;5.78;;;;;;;-8.10;88.37;96375.63;5113898;28;20040;-72
2022/12/16 03:26:36;;;;;;;6.65;5.95;;;;;;;-9.34;88.19;96149.00;5114360;28;20122;-72
2022/12/16 03:29:09;;;;;;;6.43;5.82;;;;;;;-0.06;89.65;97723.88;5113486;28;20115;-72
2022/12/16 03:31:43;;;;;;;6.82;6.13;;;;;;;0.13;89.24;97724.88;5113398;28;20373;-73
2022/12/16 03:34:17;;;;;;;6.10;5.50;;;;;;;-6.39;88.52;96628.59;5097073;28;20111;-72
2022/12/16 03:36:49;;;;;;;6.93;6.03;;;;;;;-7.64;88.51;96429.09;5113899;28;20530;-72
2022/12/16 03:39:22;;;;;;;6.32;5.45;;;;;;;-1.83;89.03;97434.03;5114234;28;20107;-73
2022/12/16 03:41:54;;;;;;;5.85;5.25;;;;;;;-6.68;88.63;96574.56;5114875;28;20111;-73
2022/12/16 03:44:26;;;;;;;6.55;5.45;;;;;;;-1.20;88.95;97471.53;5114653;28;20113;-73
2022/12/16 03:46:59;;;;;;;6.38;5.38;;;;;;;-1.19;89.16;97460.22;5113510;28;20055;-73
2022/12/16 03:49:28;;;;;;;7.07;6.22;;;;;;;-7.18;88.39;96463.72;5114121;28;20111;-73
2022/12/16 03:51:56;;;;;;;6.78;5.72;;;;;;;0.19;89.46;97676.88;5113119;28;20052;-72
2022/12/16 03:54:23;;;;;;;6.15;5.30;;;;;;;-7.01;88.87;96484.63;5112782;28;20047;-72
2022/12/16 03:56:51;;;;;;;5.93;5.20;;;;;;;-5.58;88.52;96810.00;5114183;28;20074;-72
2022/12/16 03:59:22;;;;;;;6.65;5.00;;;;;;;-6.85;88.50;96496.09;5112949;28;20048;-72
2022/12/16 04:01:49;;;;;;;5.82;5.22;;;;;;;0.24;89.31;97670.59;5113835;28;20044;-72
2022/12/16 04:04:17;;;;;;;6.78;6.00;;;;;;;0.24;89.63;97670.59;5114341;28;20055;-73
2022/12/16 04:07:18;;;;;;;6.55;5.85;;;;;;;0.26;89.62;97670.53;5114058;28;20040;-73
2022/12/16 04:09:33;;;;;;;6.88;6.07;;;;;;;-4.92;88.96;96826.75;5113425;28;20052;-72
2022/12/16 04:25:52;;;;;;;6.72;5.97;;;;;;;-6.47;88.71;96571.28;5113063;28;20043;-72
2022/12/16 04:28:19;;;;;;;6.78;5.00;;;;;;;-6.12;88.51;96847.78;5111600;28;20109;-73
2022/12/16 04:30:46;;;;;;;5.40;4.85;;;;;;;0.37;89.63;97693.53;5112749;28;20039;-72
